Time;durP1;ratioP1;P1;durP2;ratioP2;P2;SDS_P1;SDS_P2;PMS_P1;PMS_P2;Temp;Humidity;BMP_temperature;BMP_pressure;BME280_temperature;BME280_humidity;BME280_pressure;Samples;Min_cycle;Max_cycle;Signal;HPM_P1;HPM_P2
2022/08/16 00:00:44;;;;;;;16.70;14.07;;;21.40;99.90;;;;;;5111754;28;20493;-84
2022/08/16 00:03:10;;;;;;;17.75;13.82;;;21.30;99.90;;;;;;5111675;28;20031;-84
2022/08/16 00:05:36;;;;;;;17.83;14.00;;;21.40;99.90;;;;;;5111503;28;20027;-84
2022/08/16 00:08:03;;;;;;;18.83;14.43;;;21.30;99.90;;;;;;5110666;28;20046;-85
2022/08/16 00:10:32;;;;;;;19.23;14.57;;;21.30;99.90;;;;;;5112321;28;20039;-85
2022/08/16 00:12:58;;;;;;;22.73;14.95;;;21.30;99.90;;;;;;5111790;28;20118;-84
2022/08/16 00:15:40;;;;;;;19.55;14.52;;;21.30;99.90;;;;;;5111570;28;20051;-85
2022/08/16 00:18:06;;;;;;;20.08;15.05;;;21.30;99.90;;;;;;5111608;28;20102;-84
2022/08/16 00:20:32;;;;;;;19.48;14.05;;;21.20;99.90;;;;;;5111918;28;20047;-84
2022/08/16 00:22:58;;;;;;;20.05;14.98;;;21.20;99.90;;;;;;5110554;28;20024;-84
2022/08/16 00:25:24;;;;;;;19.63;14.32;;;21.20;99.90;;;;;;5111761;28;20501;-84
2022/08/16 00:27:50;;;;;;;19.95;14.45;;;21.20;99.90;;;;;;5109957;28;20027;-85
2022/08/16 00:30:18;;;;;;;18.35;13.68;;;21.10;99.90;;;;;;5111502;28;20104;-85
2022/08/16 00:32:46;;;;;;;20.35;15.10;;;21.10;99.90;;;;;;5109462;28;20043;-85
2022/08/16 00:35:16;;;;;;;17.52;13.52;;;21.20;99.90;;;;;;5109772;28;20481;-84
2022/08/16 00:37:44;;;;;;;19.13;15.15;;;21.10;99.90;;;;;;5109459;28;20486;-83
2022/08/16 00:40:11;;;;;;;19.02;13.65;;;21.10;99.90;;;;;;5111422;28;20031;-84
2022/08/16 00:42:36;;;;;;;18.23;14.27;;;21.10;99.90;;;;;;5112195;28;20038;-84
2022/08/16 00:45:15;;;;;;;26.42;16.48;;;21.10;99.90;;;;;;5112914;28;20110;-84
2022/08/16 00:47:45;;;;;;;27.80;15.43;;;21.10;99.90;;;;;;5110690;28;20057;-84
2022/08/16 00:50:11;;;;;;;19.42;15.50;;;21.10;99.90;;;;;;5111072;28;20034;-84
2022/08/16 00:52:37;;;;;;;18.00;14.75;;;21.10;99.90;;;;;;5109301;28;20035;-85
2022/08/16 00:55:03;;;;;;;19.70;13.77;;;21.00;99.90;;;;;;5110945;28;20034;-85
2022/08/16 00:57:30;;;;;;;20.38;15.27;;;21.00;99.90;;;;;;5109396;28;20118;-85
2022/08/16 00:59:55;;;;;;;19.38;13.43;;;21.00;99.90;;;;;;5111033;28;20036;-84
2022/08/16 01:02:21;;;;;;;21.35;13.93;;;21.00;99.90;;;;;;5110599;28;20113;-84
2022/08/16 01:04:47;;;;;;;16.17;11.95;;;21.00;99.90;;;;;;5110584;28;20109;-83
2022/08/16 01:07:12;;;;;;;18.98;14.23;;;21.00;99.90;;;;;;5109311;28;20043;-84
2022/08/16 01:09:38;;;;;;;18.58;12.98;;;21.00;99.90;;;;;;5111014;28;20035;-83
2022/08/16 01:12:07;;;;;;;20.15;14.50;;;21.00;99.90;;;;;;5109443;28;20032;-83
2022/08/16 01:14:41;;;;;;;16.85;12.73;;;20.90;99.90;;;;;;5114112;28;20031;-83
2022/08/16 01:17:08;;;;;;;20.50;15.48;;;20.90;99.90;;;;;;5113372;28;20110;-83
2022/08/16 01:19:38;;;;;;;15.45;11.73;;;20.90;99.90;;;;;;5115097;28;20031;-84
2022/08/16 01:22:37;;;;;;;14.82;11.57;;;20.90;99.90;;;;;;5113549;28;20118;-83
2022/08/16 01:25:11;;;;;;;14.00;11.80;;;20.90;99.90;;;;;;5114590;28;20043;-84
2022/08/16 01:27:47;;;;;;;13.25;10.95;;;20.90;99.90;;;;;;5113466;28;20447;-84
2022/08/16 01:30:17;;;;;;;18.83;12.90;;;20.90;99.90;;;;;;5113455;28;20031;-84
2022/08/16 01:32:42;;;;;;;13.43;11.43;;;20.90;99.90;;;;;;5114347;28;20093;-84
2022/08/16 01:35:14;;;;;;;14.75;12.50;;;20.90;99.90;;;;;;5114222;28;20028;-85
2022/08/16 01:37:42;;;;;;;17.85;12.90;;;20.90;99.90;;;;;;5114308;28;20059;-85
2022/08/16 01:40:09;;;;;;;15.73;12.82;;;20.80;99.90;;;;;;5114650;28;20039;-85
2022/08/16 01:42:34;;;;;;;16.25;12.40;;;20.80;99.90;;;;;;5113005;28;20046;-85
2022/08/16 01:45:00;;;;;;;17.20;13.35;;;20.80;99.90;;;;;;5113070;28;20541;-86
2022/08/16 01:47:27;;;;;;;20.05;14.90;;;20.80;99.90;;;;;;5112678;28;20055;-85
2022/08/16 01:49:52;;;;;;;18.30;13.80;;;20.80;99.90;;;;;;5114623;28;20092;-84
2022/08/16 01:52:18;;;;;;;16.40;12.98;;;20.80;99.90;;;;;;5114372;28;20035;-85
2022/08/16 01:54:44;;;;;;;16.52;13.13;;;20.80;99.90;;;;;;5124222;28;20019;-85
2022/08/16 01:57:09;;;;;;;18.30;14.55;;;20.80;99.90;;;;;;5126795;28;20119;-85
2022/08/16 01:59:36;;;;;;;17.60;14.13;;;20.70;99.90;;;;;;5116794;28;20031;-85
2022/08/16 02:02:02;;;;;;;18.42;14.85;;;20.70;99.90;;;;;;5112663;28;20035;-84
2022/08/16 02:04:29;;;;;;;19.25;13.20;;;20.70;99.90;;;;;;5113096;28;20106;-85
2022/08/16 02:06:54;;;;;;;19.33;14.15;;;20.70;99.90;;;;;;5114508;28;20104;-84
2022/08/16 02:09:23;;;;;;;16.75;13.65;;;20.70;99.90;;;;;;5114834;28;20063;-84
2022/08/16 02:11:52;;;;;;;20.90;13.68;;;20.80;99.90;;;;;;5114500;28;20497;-84
2022/08/16 02:14:18;;;;;;;18.15;13.25;;;20.80;99.90;;;;;;5114836;28;20107;-83
2022/08/16 02:16:43;;;;;;;17.05;14.18;;;20.70;99.90;;;;;;5114329;28;20114;-83
2022/08/16 02:19:12;;;;;;;15.73;13.13;;;20.70;99.90;;;;;;5115191;28;20037;-85
2022/08/16 02:21:38;;;;;;;15.35;13.50;;;20.80;99.90;;;;;;5115600;28;20070;-84
2022/08/16 02:24:04;;;;;;;17.13;12.85;;;20.70;99.90;;;;;;5113931;28;20036;-85
2022/08/16 02:26:30;;;;;;;17.27;12.65;;;20.70;99.90;;;;;;5114920;28;20492;-83
2022/08/16 02:28:56;;;;;;;17.42;14.00;;;20.80;99.90;;;;;;5114779;28;20103;-85
2022/08/16 02:31:21;;;;;;;14.75;11.20;;;20.70;99.90;;;;;;5116154;28;20118;-84
2022/08/16 02:33:47;;;;;;;13.40;11.75;;;20.70;99.90;;;;;;5116912;28;20069;-83
2022/08/16 02:36:14;;;;;;;13.18;11.75;;;20.80;99.90;;;;;;5118570;28;20039;-83
2022/08/16 02:38:40;;;;;;;14.40;12.43;;;20.70;99.90;;;;;;5120377;28;20640;-83
2022/08/16 02:41:07;;;;;;;20.00;12.75;;;20.70;99.90;;;;;;5123158;28;20032;-85
2022/08/16 02:43:33;;;;;;;13.30;10.77;;;20.70;99.90;;;;;;5122974;28;20095;-84
2022/08/16 02:46:00;;;;;;;17.92;12.75;;;20.70;99.90;;;;;;5118541;28;20055;-84
2022/08/16 02:48:27;;;;;;;14.55;12.13;;;20.70;99.90;;;;;;5113075;28;20036;-84
2022/08/16 02:50:53;;;;;;;17.85;11.35;;;20.70;99.90;;;;;;5111955;28;20030;-84
2022/08/16 02:53:18;;;;;;;15.07;12.30;;;20.60;99.90;;;;;;5113627;28;20427;-84
2022/08/16 02:55:44;;;;;;;14.85;12.23;;;20.60;99.90;;;;;;5111607;28;20030;-85
2022/08/16 02:58:10;;;;;;;17.48;11.50;;;20.60;99.90;;;;;;5113157;28;20019;-84
2022/08/16 03:00:36;;;;;;;12.80;11.20;;;20.60;99.90;;;;;;5111566;28;20026;-85
2022/08/16 03:03:01;;;;;;;16.10;11.70;;;20.60;99.90;;;;;;5111422;28;20063;-85
2022/08/16 03:05:27;;;;;;;15.80;10.32;;;20.60;99.90;;;;;;5111261;28;20452;-85
2022/08/16 03:07:52;;;;;;;11.70;10.50;;;20.60;99.90;;;;;;5113029;28;20091;-86
2022/08/16 03:10:18;;;;;;;13.23;10.30;;;20.60;99.90;;;;;;5111829;28;20039;-86
2022/08/16 03:12:45;;;;;;;13.45;11.20;;;20.60;99.90;;;;;;5112581;27;20055;-86
2022/08/16 03:15:13;;;;;;;14.38;10.70;;;20.60;99.90;;;;;;5111290;28;20062;-86
2022/08/16 03:17:39;;;;;;;20.30;11.93;;;20.50;99.90;;;;;;5112396;28;20667;-85
2022/08/16 03:20:08;;;;;;;14.32;11.80;;;20.50;99.90;;;;;;5111684;28;20023;-86
2022/08/16 03:22:34;;;;;;;20.35;11.60;;;20.50;99.90;;;;;;5112545;28;20032;-86
2022/08/16 03:25:03;;;;;;;17.67;10.95;;;20.40;99.90;;;;;;5112637;28;20038;-87
2022/08/16 03:27:30;;;;;;;16.90;12.32;;;20.40;99.90;;;;;;5112082;28;20031;-86
2022/08/16 03:29:56;;;;;;;15.52;11.77;;;20.40;99.90;;;;;;5111150;28;20027;-83
2022/08/16 03:32:21;;;;;;;12.55;10.40;;;20.30;99.90;;;;;;5112557;28;20027;-84
2022/08/16 03:34:47;;;;;;;16.17;12.10;;;20.30;99.90;;;;;;5112704;28;20035;-84
2022/08/16 03:37:12;;;;;;;13.57;11.30;;;20.30;99.90;;;;;;5111122;28;20067;-84
2022/08/16 03:39:38;;;;;;;14.90;11.68;;;20.30;99.90;;;;;;5112355;28;20038;-84
2022/08/16 03:42:04;;;;;;;12.82;11.35;;;20.30;99.90;;;;;;5111828;28;20389;-84
2022/08/16 03:44:31;;;;;;;14.63;11.40;;;20.30;99.90;;;;;;5110778;28;20487;-85
2022/08/16 03:46:57;;;;;;;13.23;10.88;;;20.30;99.90;;;;;;5109773;28;20046;-83
2022/08/16 03:49:23;;;;;;;13.23;9.65;;;20.30;99.90;;;;;;5112117;28;20035;-83
2022/08/16 03:51:48;;;;;;;12.00;9.75;;;20.30;99.90;;;;;;5110521;28;20034;-83
2022/08/16 03:54:14;;;;;;;16.95;10.25;;;20.30;99.90;;;;;;5110604;28;20027;-84
2022/08/16 03:56:40;;;;;;;14.30;11.20;;;20.30;99.90;;;;;;5111381;28;20035;-84
2022/08/16 03:59:06;;;;;;;17.92;10.40;;;20.30;99.90;;;;;;5111367;28;20054;-84
2022/08/16 04:01:31;;;;;;;12.13;9.73;;;20.30;99.90;;;;;;5110319;28;20469;-84
2022/08/16 04:03:57;;;;;;;12.82;9.20;;;20.30;99.90;;;;;;5111870;28;20054;-84
2022/08/16 04:06:22;;;;;;;11.30;10.02;;;20.20;99.90;;;;;;5109908;28;20027;-83
2022/08/16 04:08:48;;;;;;;19.70;10.10;;;20.30;99.90;;;;;;5109959;28;20119;-83
2022/08/16 04:11:14;;;;;;;11.35;9.45;;;20.30;99.90;;;;;;5110193;28;20030;-84
2022/08/16 04:13:40;;;;;;;12.73;10.15;;;20.30;99.90;;;;;;5111817;28;20027;-86
2022/08/16 04:16:05;;;;;;;12.43;9.48;;;20.30;99.90;;;;;;5111529;28;20032;-84
2022/08/16 04:18:31;;;;;;;10.63;8.70;;;20.30;99.90;;;;;;5111126;28;20032;-84
2022/08/16 04:20:56;;;;;;;12.40;8.60;;;20.30;99.90;;;;;;5111659;28;20061;-85
2022/08/16 04:23:23;;;;;;;16.02;9.45;;;20.30;99.90;;;;;;5112194;28;20036;-85
2022/08/16 04:25:48;;;;;;;15.30;8.27;;;20.30;99.90;;;;;;5109520;28;20027;-85
2022/08/16 04:28:15;;;;;;;14.68;8.45;;;20.30;99.90;;;;;;5111942;28;20024;-84
2022/08/16 04:30:41;;;;;;;10.00;8.40;;;20.30;99.90;;;;;;5111142;28;20579;-85
2022/08/16 04:33:07;;;;;;;13.23;8.45;;;20.30;99.90;;;;;;5112906;28;20146;-85
2022/08/16 04:35:32;;;;;;;14.85;8.23;;;20.30;99.90;;;;;;5113817;28;20027;-85
2022/08/16 04:37:58;;;;;;;12.68;9.07;;;20.30;99.90;;;;;;5114986;28;20470;-85
2022/08/16 04:40:26;;;;;;;12.05;8.15;;;20.40;99.90;;;;;;5113769;28;20050;-85
2022/08/16 04:42:51;;;;;;;13.40;8.38;;;20.40;99.90;;;;;;5115160;28;20031;-84
2022/08/16 04:45:17;;;;;;;8.15;6.88;;;20.40;99.90;;;;;;5111755;28;20035;-84
2022/08/16 04:47:44;;;;;;;10.13;7.70;;;20.40;99.90;;;;;;5109735;28;20032;-84
2022/08/16 04:50:16;;;;;;;10.43;7.03;;;20.40;99.90;;;;;;5111212;28;20027;-85
2022/08/16 04:52:47;;;;;;;10.77;8.20;;;20.50;99.90;;;;;;5110942;28;20036;-84
2022/08/16 04:55:17;;;;;;;11.63;7.72;;;20.50;99.90;;;;;;5109867;28;20035;-84
2022/08/16 04:57:44;;;;;;;10.07;7.20;;;20.50;99.90;;;;;;5111799;28;20474;-85
2022/08/16 05:00:12;;;;;;;14.38;8.05;;;20.50;99.90;;;;;;5109582;28;20031;-84
2022/08/16 05:02:39;;;;;;;10.10;7.45;;;20.60;99.90;;;;;;5109443;28;20020;-85
2022/08/16 05:05:05;;;;;;;10.43;7.15;;;20.50;99.90;;;;;;5109944;28;20028;-85
2022/08/16 05:07:31;;;;;;;10.77;6.88;;;20.50;99.90;;;;;;5109691;28;20473;-86
2022/08/16 05:09:56;;;;;;;7.28;6.45;;;20.60;99.90;;;;;;5110888;28;20034;-85
2022/08/16 05:12:21;;;;;;;8.82;6.47;;;20.60;99.90;;;;;;5111074;28;20470;-85
2022/08/16 05:14:47;;;;;;;13.93;6.75;;;20.70;99.90;;;;;;5109622;28;20408;-85
2022/08/16 05:17:13;;;;;;;7.82;5.88;;;20.70;99.90;;;;;;5111067;28;20020;-85
2022/08/16 05:19:38;;;;;;;8.60;5.28;;;20.80;99.90;;;;;;5111179;28;20019;-85
2022/08/16 05:22:04;;;;;;;12.18;6.55;;;20.80;99.90;;;;;;5111215;28;20500;-85
2022/08/16 05:24:29;;;;;;;7.63;5.85;;;20.90;99.90;;;;;;5109911;28;20027;-85
2022/08/16 05:26:55;;;;;;;7.10;6.03;;;20.90;99.90;;;;;;5110673;28;20461;-86
2022/08/16 05:29:20;;;;;;;11.60;5.60;;;20.90;99.90;;;;;;5109822;28;20024;-85
2022/08/16 05:31:45;;;;;;;8.30;5.72;;;21.00;99.90;;;;;;5109710;28;20083;-84
2022/08/16 05:34:11;;;;;;;6.35;4.35;;;21.00;99.90;;;;;;5111144;28;20493;-85
2022/08/16 05:36:37;;;;;;;9.05;4.88;;;21.00;99.90;;;;;;5109157;28;20023;-85
2022/08/16 05:39:04;;;;;;;7.13;4.65;;;21.10;99.90;;;;;;5110916;28;20028;-85
2022/08/16 05:41:30;;;;;;;8.27;4.35;;;21.10;99.80;;;;;;5110654;28;20397;-85
2022/08/16 05:43:55;;;;;;;5.63;4.57;;;21.10;99.90;;;;;;5109309;28;20028;-85
2022/08/16 05:46:21;;;;;;;5.85;5.30;;;21.20;99.80;;;;;;5110420;28;20257;-86
2022/08/16 05:48:46;;;;;;;8.35;5.22;;;21.20;99.90;;;;;;5111581;28;20036;-85
2022/08/16 05:51:12;;;;;;;7.70;4.90;;;21.30;99.90;;;;;;5110959;28;20120;-85
2022/08/16 05:53:37;;;;;;;8.75;5.15;;;21.30;99.70;;;;;;5117120;28;20478;-84
2022/08/16 05:56:03;;;;;;;6.97;5.00;;;21.30;99.70;;;;;;5117925;28;20032;-85
2022/08/16 05:58:28;;;;;;;6.15;5.07;;;21.30;99.50;;;;;;5111408;28;20038;-85
2022/08/16 06:00:55;;;;;;;5.90;5.30;;;21.40;99.60;;;;;;5114140;28;20100;-86
2022/08/16 06:03:20;;;;;;;7.07;4.80;;;21.40;99.60;;;;;;5115098;28;20031;-85
2022/08/16 06:05:46;;;;;;;8.25;5.03;;;21.50;99.60;;;;;;5113619;28;20023;-85
2022/08/16 06:08:11;;;;;;;6.60;5.20;;;21.50;99.50;;;;;;5112945;28;20065;-85
2022/08/16 06:10:37;;;;;;;7.78;5.20;;;21.50;99.50;;;;;;5114727;28;20019;-84
2022/08/16 06:13:02;;;;;;;6.72;5.05;;;21.50;99.50;;;;;;5112742;28;20386;-84
2022/08/16 06:15:28;;;;;;;9.23;4.85;;;21.60;99.70;;;;;;5113684;28;20037;-84
2022/08/16 06:17:54;;;;;;;5.38;4.68;;;21.60;99.40;;;;;;5114107;28;20032;-85
2022/08/16 06:20:22;;;;;;;5.80;4.38;;;21.70;99.50;;;;;;5114126;27;20039;-85
2022/08/16 06:22:49;;;;;;;6.47;4.70;;;21.70;99.50;;;;;;5112494;28;20087;-85
2022/08/16 06:25:15;;;;;;;5.25;4.60;;;21.70;99.40;;;;;;5112453;28;20027;-85
2022/08/16 06:27:41;;;;;;;6.78;4.85;;;21.80;99.30;;;;;;5112297;28;20073;-84
2022/08/16 06:30:10;;;;;;;5.15;4.25;;;21.80;98.90;;;;;;5113364;28;20058;-84
2022/08/16 06:32:35;;;;;;;6.63;4.43;;;21.80;98.70;;;;;;5113206;28;20028;-85
2022/08/16 06:35:02;;;;;;;5.50;4.35;;;21.90;98.90;;;;;;5114038;28;20635;-85
2022/08/16 06:37:27;;;;;;;9.10;4.50;;;21.90;98.50;;;;;;5111759;28;20517;-85
2022/08/16 06:39:52;;;;;;;7.57;4.10;;;22.00;98.30;;;;;;5113753;28;20062;-85
2022/08/16 06:42:18;;;;;;;13.70;4.70;;;22.10;98.30;;;;;;5113385;28;20036;-85
2022/08/16 06:44:43;;;;;;;6.13;4.10;;;22.20;98.30;;;;;;5112721;28;20457;-85
2022/08/16 06:47:09;;;;;;;6.22;4.35;;;22.20;98.00;;;;;;5111282;28;20077;-85
2022/08/16 06:49:35;;;;;;;5.22;3.85;;;22.30;97.60;;;;;;5113656;28;20015;-85
2022/08/16 06:52:00;;;;;;;4.68;3.50;;;22.30;97.70;;;;;;5111968;28;20521;-85
2022/08/16 06:54:26;;;;;;;6.25;4.03;;;22.40;97.60;;;;;;5113737;28;20035;-84
2022/08/16 06:56:51;;;;;;;4.95;3.42;;;22.50;97.10;;;;;;5111167;28;20074;-84
2022/08/16 06:59:17;;;;;;;5.93;3.35;;;22.50;97.30;;;;;;5111935;28;20055;-85
2022/08/16 07:01:42;;;;;;;4.47;3.72;;;22.60;97.10;;;;;;5113374;28;20035;-85
2022/08/16 07:04:08;;;;;;;5.43;3.53;;;22.60;96.80;;;;;;5111782;28;20016;-85
2022/08/16 07:06:33;;;;;;;7.05;3.47;;;22.70;96.70;;;;;;5112946;28;20027;-85
2022/08/16 07:08:59;;;;;;;4.53;3.22;;;22.70;96.10;;;;;;5111536;28;20027;-85
2022/08/16 07:11:25;;;;;;;3.72;3.20;;;22.80;96.60;;;;;;5111100;28;20078;-85
2022/08/16 07:13:51;;;;;;;5.25;2.92;;;22.90;96.60;;;;;;5112664;27;20107;-86
2022/08/16 07:16:17;;;;;;;7.13;3.78;;;23.00;96.30;;;;;;5112847;28;20161;-84
2022/08/16 07:18:44;;;;;;;4.57;3.40;;;23.10;96.00;;;;;;5112987;28;20039;-85
2022/08/16 07:21:12;;;;;;;4.20;3.25;;;23.20;95.60;;;;;;5112591;28;20040;-85
2022/08/16 07:23:38;;;;;;;3.45;3.13;;;23.30;95.40;;;;;;5111615;28;20637;-85
2022/08/16 07:26:12;;;;;;;6.65;3.17;;;23.40;95.50;;;;;;5110539;28;20393;-85
2022/08/16 07:28:37;;;;;;;5.38;3.35;;;23.40;95.10;;;;;;5111453;28;20490;-86
2022/08/16 07:31:04;;;;;;;5.18;2.97;;;23.50;95.00;;;;;;5111020;28;20035;-86
2022/08/16 07:33:34;;;;;;;7.32;3.60;;;23.50;95.50;;;;;;5113368;28;20082;-86
2022/08/16 07:35:59;;;;;;;3.85;3.00;;;23.60;94.70;;;;;;5110654;28;20019;-86
2022/08/16 07:38:26;;;;;;;3.65;3.10;;;23.80;94.90;;;;;;5112718;28;20107;-85
2022/08/16 07:40:56;;;;;;;4.50;2.80;;;23.90;94.80;;;;;;5111017;28;20028;-87
2022/08/16 07:43:22;;;;;;;6.20;3.33;;;24.00;94.60;;;;;;5112197;28;20028;-85
2022/08/16 07:45:48;;;;;;;7.18;3.10;;;24.10;94.20;;;;;;5111730;28;20027;-86
2022/08/16 07:48:14;;;;;;;5.55;3.03;;;24.30;94.30;;;;;;5112583;28;20103;-87
2022/08/16 07:50:41;;;;;;;5.43;3.58;;;24.40;93.60;;;;;;5112674;28;20107;-88
2022/08/16 07:53:07;;;;;;;4.65;3.30;;;24.50;93.50;;;;;;5110545;28;20121;-87
2022/08/16 07:55:32;;;;;;;5.32;3.22;;;24.50;93.60;;;;;;5112214;28;20063;-86
2022/08/16 07:57:58;;;;;;;4.57;3.08;;;24.60;93.40;;;;;;5112696;28;20030;-88
2022/08/16 08:00:25;;;;;;;5.10;3.63;;;24.70;93.20;;;;;;5111226;28;20118;-87
2022/08/16 08:02:51;;;;;;;4.38;3.30;;;24.80;92.80;;;;;;5111700;28;20024;-87
2022/08/16 08:05:16;;;;;;;2.97;2.67;;;24.90;93.20;;;;;;5112048;28;20053;-88
2022/08/16 08:07:42;;;;;;;4.30;3.22;;;25.00;92.90;;;;;;5111669;28;20035;-86
2022/08/16 08:10:08;;;;;;;6.72;3.25;;;25.10;92.60;;;;;;5111047;28;20107;-87
2022/08/16 08:12:34;;;;;;;5.80;3.28;;;25.10;92.70;;;;;;5111822;28;20073;-86
2022/08/16 08:15:00;;;;;;;6.43;3.13;;;25.20;91.90;;;;;;5112179;28;20055;-87
2022/08/16 08:17:28;;;;;;;3.75;2.90;;;25.30;92.70;;;;;;5111497;28;20045;-87
2022/08/16 08:19:53;;;;;;;7.05;2.78;;;25.40;92.60;;;;;;5111949;28;20019;-86
2022/08/16 08:22:21;;;;;;;3.78;3.47;;;25.50;92.00;;;;;;5110570;28;20031;-87
2022/08/16 08:24:47;;;;;;;6.30;3.25;;;25.70;92.30;;;;;;5110982;28;20531;-87
2022/08/16 08:27:13;;;;;;;5.60;3.33;;;25.80;91.40;;;;;;5112024;28;20024;-86
2022/08/16 08:29:39;;;;;;;8.43;3.42;;;25.80;91.80;;;;;;5110372;28;20126;-87
2022/08/16 08:32:06;;;;;;;3.53;3.10;;;25.90;92.20;;;;;;5111833;28;20102;-87
2022/08/16 08:34:32;;;;;;;3.78;2.80;;;26.00;91.70;;;;;;5112490;28;20031;-87
2022/08/16 08:36:58;;;;;;;5.25;3.47;;;26.10;91.90;;;;;;5111457;28;20027;-88
2022/08/16 08:39:23;;;;;;;4.47;3.60;;;26.20;91.80;;;;;;5111860;28;20027;-86
2022/08/16 08:41:50;;;;;;;5.50;2.97;;;26.30;91.30;;;;;;5110066;28;20023;-86
2022/08/16 08:44:16;;;;;;;8.73;3.42;;;26.40;91.20;;;;;;5112340;28;20019;-87
2022/08/16 08:46:41;;;;;;;5.75;3.15;;;26.60;91.40;;;;;;5111312;28;20153;-88
2022/08/16 08:49:07;;;;;;;6.72;3.38;;;26.70;90.80;;;;;;5110831;28;20019;-85
2022/08/16 08:51:33;;;;;;;5.05;2.72;;;26.70;90.40;;;;;;5111685;28;20128;-86
2022/08/16 08:53:59;;;;;;;7.43;3.75;;;26.80;90.40;;;;;;5110284;28;20128;-87
2022/08/16 08:56:24;;;;;;;6.32;3.15;;;26.90;89.50;;;;;;5111018;28;20486;-87
2022/08/16 08:58:50;;;;;;;4.95;3.47;;;26.90;90.20;;;;;;5111863;28;20458;-86
2022/08/16 09:01:21;;;;;;;5.65;2.88;;;27.00;90.40;;;;;;5110187;28;20024;-88
2022/08/16 09:03:46;;;;;;;10.75;3.00;;;27.10;90.60;;;;;;5110457;28;20034;-88
2022/08/16 09:06:12;;;;;;;3.13;2.60;;;27.30;90.10;;;;;;5110424;28;20031;-87
2022/08/16 09:08:38;;;;;;;3.30;2.53;;;27.40;90.10;;;;;;5110955;28;20031;-86
2022/08/16 09:11:04;;;;;;;5.05;3.45;;;27.60;89.30;;;;;;5113973;28;20459;-85
2022/08/16 09:13:31;;;;;;;3.85;3.50;;;27.70;87.60;;;;;;5121089;28;20024;-86
2022/08/16 09:15:57;;;;;;;3.30;2.88;;;27.70;89.00;;;;;;5116749;28;20072;-85
2022/08/16 09:18:23;;;;;;;3.47;2.67;;;27.80;87.30;;;;;;5111641;28;20498;-85
2022/08/16 09:20:54;;;;;;;5.22;2.63;;;27.80;88.20;;;;;;5111026;28;20028;-88
2022/08/16 09:23:20;;;;;;;6.97;2.40;;;27.80;87.20;;;;;;5109838;28;20028;-86
2022/08/16 09:25:47;;;;;;;3.33;2.28;;;28.00;85.80;;;;;;5110133;28;20099;-87
2022/08/16 09:28:13;;;;;;;9.15;2.47;;;28.10;85.70;;;;;;5111070;28;20839;-86
2022/08/16 09:30:39;;;;;;;3.25;2.28;;;28.20;84.80;;;;;;5109804;28;20050;-85
2022/08/16 09:33:05;;;;;;;2.90;2.20;;;28.30;84.70;;;;;;5109105;28;20059;-86
2022/08/16 09:35:31;;;;;;;6.35;2.90;;;28.40;84.20;;;;;;5112055;28;20038;-86
2022/08/16 09:37:56;;;;;;;3.10;2.35;;;28.40;85.60;;;;;;5113259;28;20036;-85
2022/08/16 09:40:22;;;;;;;2.67;2.45;;;28.50;83.70;;;;;;5114992;28;20027;-85
2022/08/16 09:42:48;;;;;;;2.67;2.00;;;28.60;82.90;;;;;;5115056;28;20085;-86
2022/08/16 09:45:14;;;;;;;5.15;2.00;;;28.70;81.90;;;;;;5113551;28;20081;-86
2022/08/16 09:47:40;;;;;;;2.97;1.92;;;28.80;81.40;;;;;;5114633;27;20019;-86
2022/08/16 09:50:08;;;;;;;2.10;1.77;;;28.80;82.50;;;;;;5115087;28;20024;-87
2022/08/16 09:52:36;;;;;;;4.35;1.42;;;28.80;79.50;;;;;;5113362;28;20043;-86
2022/08/16 09:55:11;;;;;;;3.47;1.90;;;28.90;80.10;;;;;;5115407;28;20024;-85
2022/08/16 09:57:39;;;;;;;2.08;1.73;;;29.00;79.30;;;;;;5113784;28;20481;-87
2022/08/16 10:00:09;;;;;;;8.68;1.80;;;29.10;79.90;;;;;;5113441;28;20483;-85
2022/08/16 10:02:35;;;;;;;2.83;1.70;;;29.20;79.70;;;;;;5096773;28;20031;-87
2022/08/16 10:05:01;;;;;;;6.25;2.17;;;29.30;80.30;;;;;;5114807;28;20076;-86
2022/08/16 10:07:29;;;;;;;2.33;2.10;;;29.50;79.90;;;;;;5114786;28;20036;-88
2022/08/16 10:09:55;;;;;;;2.63;2.15;;;29.70;79.00;;;;;;5113103;28;20046;-87
2022/08/16 10:15:07;;;;;;;5.30;1.63;;;29.80;79.50;;;;;;5115095;28;20030;-87
2022/08/16 10:17:33;;;;;;;3.28;1.75;;;29.80;81.30;;;;;;5113917;28;20122;-87
2022/08/16 10:19:59;;;;;;;4.25;1.65;;;30.00;79.80;;;;;;5114402;28;20020;-87
2022/08/16 10:22:24;;;;;;;2.25;1.30;;;30.10;78.30;;;;;;5115433;28;20073;-87
2022/08/16 10:24:50;;;;;;;2.13;1.65;;;30.20;73.80;;;;;;5113885;28;20023;-87
2022/08/16 10:27:16;;;;;;;3.50;1.40;;;30.30;75.80;;;;;;5113460;28;20036;-86
2022/08/16 10:29:42;;;;;;;1.92;1.40;;;30.50;75.90;;;;;;5113417;28;20028;-87
2022/08/16 10:32:08;;;;;;;3.13;1.55;;;30.50;71.80;;;;;;5114413;28;20046;-88
2022/08/16 10:34:33;;;;;;;3.33;1.30;;;30.40;71.30;;;;;;5113846;28;20058;-89
2022/08/16 10:37:00;;;;;;;2.85;1.33;;;30.50;72.60;;;;;;5114710;28;20035;-88
2022/08/16 10:39:27;;;;;;;2.45;1.15;;;30.50;71.40;;;;;;5114944;28;20031;-87
2022/08/16 10:41:52;;;;;;;1.95;1.50;;;30.50;69.40;;;;;;5113441;28;20038;-88
2022/08/16 10:44:18;;;;;;;3.40;1.42;;;30.50;69.70;;;;;;5113795;28;20027;-90
2022/08/16 10:46:43;;;;;;;3.22;1.15;;;30.50;69.50;;;;;;5112325;28;20031;-88
2022/08/16 10:49:10;;;;;;;1.80;1.40;;;30.50;71.70;;;;;;5114752;28;20478;-86
2022/08/16 10:51:37;;;;;;;2.00;1.17;;;30.60;70.90;;;;;;5114728;28;20024;-88
2022/08/16 10:54:04;;;;;;;2.72;1.52;;;30.80;68.70;;;;;;5113424;28;20049;-86
2022/08/16 10:56:29;;;;;;;2.72;1.27;;;30.70;68.50;;;;;;5114359;28;20030;-86
2022/08/16 10:58:56;;;;;;;1.40;1.08;;;30.70;67.60;;;;;;5113353;28;20028;-88
2022/08/16 11:01:24;;;;;;;3.00;1.10;;;30.60;67.70;;;;;;5112629;28;20389;-88
2022/08/16 11:03:51;;;;;;;4.50;1.15;;;30.60;68.20;;;;;;5114096;28;20097;-86
2022/08/16 11:06:16;;;;;;;3.03;1.30;;;30.60;69.10;;;;;;5112878;28;20032;-86
2022/08/16 11:08:42;;;;;;;2.17;1.10;;;30.80;69.20;;;;;;5113834;28;20031;-85
2022/08/16 11:11:10;;;;;;;2.88;1.48;;;30.90;67.70;;;;;;5113711;27;20023;-88
2022/08/16 11:13:36;;;;;;;1.42;1.27;;;31.10;68.90;;;;;;5113248;28;20023;-86
2022/08/16 11:16:02;;;;;;;2.55;1.20;;;31.30;67.00;;;;;;5112134;28;20030;-88
2022/08/16 11:18:28;;;;;;;2.03;1.33;;;31.30;65.80;;;;;;5112425;28;20038;-88
2022/08/16 11:20:55;;;;;;;1.63;1.20;;;31.40;66.50;;;;;;5113630;28;20031;-85
2022/08/16 11:23:21;;;;;;;4.32;1.33;;;31.50;66.60;;;;;;5113655;28;20073;-87
2022/08/16 11:25:47;;;;;;;1.58;1.10;;;31.60;67.00;;;;;;5113012;28;20035;-86
2022/08/16 11:28:13;;;;;;;2.85;1.20;;;31.60;66.50;;;;;;5113500;28;20031;-88
2022/08/16 11:30:39;;;;;;;4.03;1.45;;;31.70;66.40;;;;;;5113303;27;20028;-87
2022/08/16 11:33:05;;;;;;;2.67;1.35;;;31.90;63.90;;;;;;5113686;28;20087;-87
2022/08/16 11:35:32;;;;;;;3.25;1.40;;;31.90;65.00;;;;;;5112871;28;20106;-88
2022/08/16 11:38:09;;;;;;;3.22;1.40;;;32.00;65.90;;;;;;5111668;28;20131;-85
2022/08/16 11:40:56;;;;;;;2.58;1.38;;;32.10;63.60;;;;;;5113292;28;20097;-88
2022/08/16 11:43:25;;;;;;;3.28;1.48;;;32.40;64.50;;;;;;5113065;28;20477;-87
2022/08/16 11:45:51;;;;;;;3.60;1.38;;;32.50;63.20;;;;;;5111059;28;20032;-85
2022/08/16 11:48:18;;;;;;;1.92;1.38;;;32.70;63.40;;;;;;5112572;28;20035;-85
2022/08/16 11:50:44;;;;;;;2.00;1.70;;;32.90;63.10;;;;;;5111066;28;20030;-82
2022/08/16 11:53:11;;;;;;;6.72;1.40;;;33.00;60.30;;;;;;5112282;28;20111;-84
2022/08/16 11:55:38;;;;;;;4.75;1.58;;;33.10;65.70;;;;;;5112251;28;20027;-86
2022/08/16 11:58:05;;;;;;;1.40;1.00;;;33.10;60.90;;;;;;5110785;28;20497;-87
2022/08/16 12:00:31;;;;;;;2.30;1.10;;;33.10;61.00;;;;;;5112314;28;20023;-86
2022/08/16 12:02:57;;;;;;;2.22;1.08;;;33.30;61.20;;;;;;5112093;28;20032;-86
2022/08/16 12:05:23;;;;;;;4.55;1.48;;;33.30;61.80;;;;;;5110821;28;20038;-85
2022/08/16 12:07:49;;;;;;;4.47;1.38;;;33.40;60.20;;;;;;5111286;28;20073;-84
2022/08/16 12:10:16;;;;;;;2.38;1.33;;;33.40;60.10;;;;;;5111423;28;20058;-85
2022/08/16 12:12:43;;;;;;;2.10;1.23;;;33.50;60.30;;;;;;5112878;28;20068;-85
2022/08/16 12:15:09;;;;;;;2.92;1.10;;;33.60;61.90;;;;;;5112517;28;20108;-87
2022/08/16 12:17:36;;;;;;;2.28;1.30;;;33.70;58.10;;;;;;5112001;28;20035;-86
2022/08/16 12:20:15;;;;;;;2.70;1.10;;;33.80;60.00;;;;;;5112680;28;20059;-85
2022/08/16 12:22:42;;;;;;;2.08;1.20;;;33.90;58.40;;;;;;5112864;27;20038;-86
2022/08/16 12:25:12;;;;;;;1.88;1.05;;;34.00;57.70;;;;;;5113048;28;20027;-84
2022/08/16 12:27:39;;;;;;;1.40;1.15;;;34.10;57.30;;;;;;5116673;28;20084;-83
2022/08/16 12:30:07;;;;;;;1.17;1.05;;;34.10;56.90;;;;;;5124199;28;20118;-85
2022/08/16 12:32:32;;;;;;;1.90;1.30;;;34.20;56.50;;;;;;5117481;28;20024;-85
2022/08/16 12:34:58;;;;;;;1.60;1.08;;;34.20;55.60;;;;;;5112949;28;20027;-87
2022/08/16 12:37:23;;;;;;;2.20;1.20;;;34.30;58.60;;;;;;5112361;28;20043;-85
2022/08/16 12:39:50;;;;;;;3.08;1.15;;;34.30;56.40;;;;;;5112162;28;20023;-88